Time;durP1;ratioP1;P1;durP2;ratioP2;P2;SDS_P1;SDS_P2;PMS_P1;PMS_P2;Temp;Humidity;BMP_temperature;BMP_pressure;BME280_temperature;BME280_humidity;BME280_pressure;Samples;Min_cycle;Max_cycle;Signal;HPM_P1;HPM_P2
2022/12/25 00:01:30;;;;;;;;;;;;;;;;;;4979154;28;94595;-65
2022/12/25 00:03:57;;;;;;;8.75;3.30;;;;;;;;;;4979788;28;117676;-63
2022/12/25 00:06:24;;;;;;;9.07;3.50;;;;;;;;;;4966842;28;94875;-63
2022/12/25 00:08:51;;;;;;;9.48;3.47;;;;;;;;;;4980217;28;92609;-63
2022/12/25 00:11:18;;;;;;;7.70;3.05;;;;;;;;;;4967874;28;93741;-62
2022/12/25 00:13:45;;;;;;;9.18;3.20;;;;;;;;;;4980161;28;92904;-65
2022/12/25 00:16:14;;;;;;;10.85;3.50;;;;;;;;;;4980990;28;92068;-65
2022/12/25 00:18:40;;;;;;;9.13;3.60;;;;;;;;;;4979994;28;92439;-65
2022/12/25 00:21:07;;;;;;;8.23;3.17;;;;;;;;;;4978257;28;92160;-63
2022/12/25 00:23:33;;;;;;;9.65;3.42;;;;;;;;;;4981142;28;92191;-64
2022/12/25 00:26:02;;;;;;;9.63;3.33;;;;;;;;;;4980697;28;93003;-64
2022/12/25 00:28:29;;;;;;;9.23;3.30;;;;;;;;;;4979428;28;94482;-63
2022/12/25 00:30:55;;;;;;;12.50;3.45;;;;;;;;;;4983794;28;92665;-62
2022/12/25 00:33:23;;;;;;;10.93;3.53;;;;;;;;;;4980977;28;92539;-62
2022/12/25 00:35:57;;;;;;;9.18;3.50;;;;;;;;;;4978516;28;92304;-62
2022/12/25 00:38:23;;;;;;;;;;;;;;;;;;4981357;28;93270;-62
2022/12/25 00:40:51;;;;;;;10.70;3.65;;;;;;;;;;4981009;28;113176;-62
2022/12/25 00:43:17;;;;;;;14.55;3.20;;;;;;;;;;4968222;28;92380;-63
2022/12/25 00:45:52;;;;;;;12.20;3.20;;;;;;;;;;4979437;28;92547;-62
2022/12/25 00:48:18;;;;;;;10.43;3.60;;;;;;;;;;4980781;28;93114;-62
2022/12/25 00:50:44;;;;;;;9.27;3.45;;;;;;;;;;4982985;28;92176;-62
2022/12/25 00:53:11;;;;;;;10.75;3.28;;;;;;;;;;4982092;28;94597;-62
2022/12/25 00:55:37;;;;;;;10.80;3.22;;;;;;;;;;4980470;28;92260;-62
2022/12/25 00:58:03;;;;;;;10.55;3.30;;;;;;;;;;4981057;28;93679;-64
2022/12/25 01:00:30;;;;;;;12.73;3.42;;;;;;;;;;4980464;28;92653;-64
2022/12/25 01:02:56;;;;;;;10.95;3.58;;;;;;;;;;4981297;28;92942;-63
2022/12/25 01:05:23;;;;;;;12.20;3.47;;;;;;;;;;4980526;28;92289;-64
2022/12/25 01:07:49;;;;;;;11.00;3.50;;;;;;;;;;4981758;28;92723;-64
2022/12/25 01:10:22;;;;;;;10.80;3.42;;;;;;;;;;4984472;28;91638;-63
2022/12/25 01:12:49;;;;;;;9.45;3.33;;;;;;;;;;4971553;28;92402;-63
2022/12/25 01:15:15;;;;;;;9.95;3.33;;;;;;;;;;4986678;28;92629;-62
2022/12/25 01:17:42;;;;;;;11.02;3.67;;;;;;;;;;4982677;28;94866;-62
2022/12/25 01:20:10;;;;;;;8.75;3.25;;;;;;;;;;4983818;28;92370;-63
2022/12/25 01:22:36;;;;;;;;;;;;;;;;;;4984419;28;92128;-63
2022/12/25 01:25:03;;;;;;;8.95;3.10;;;;;;;;;;4984319;28;119292;-63
2022/12/25 01:27:30;;;;;;;10.68;3.13;;;;;;;;;;4983640;28;92614;-63
2022/12/25 01:29:57;;;;;;;10.27;3.53;;;;;;;;;;4983438;28;92068;-63
2022/12/25 01:32:23;;;;;;;9.32;3.20;;;;;;;;;;4984269;28;93034;-63
2022/12/25 01:34:50;;;;;;;10.07;3.40;;;;;;;;;;4977688;28;91956;-63
2022/12/25 01:37:22;;;;;;;8.90;3.00;;;;;;;;;;4983017;28;91954;-63
2022/12/25 01:39:49;;;;;;;9.18;3.20;;;;;;;;;;4983297;28;92541;-63
2022/12/25 01:42:16;;;;;;;9.02;3.55;;;;;;;;;;4982181;28;94611;-63
2022/12/25 01:44:45;;;;;;;10.95;3.30;;;;;;;;;;4976167;28;94641;-63
2022/12/25 01:47:12;;;;;;;10.65;3.30;;;;;;;;;;4981584;28;92584;-63
2022/12/25 01:49:40;;;;;;;10.73;3.15;;;;;;;;;;4985366;28;92328;-63
2022/12/25 01:52:09;;;;;;;8.30;3.22;;;;;;;;;;4974024;28;92156;-63
2022/12/25 01:54:40;;;;;;;9.65;3.45;;;;;;;;;;4981808;28;92614;-63
2022/12/25 01:57:12;;;;;;;8.98;3.40;;;;;;;;;;4981904;28;92178;-63
2022/12/25 01:59:39;;;;;;;9.10;3.25;;;;;;;;;;4985521;28;92802;-63
2022/12/25 02:02:05;;;;;;;7.63;2.75;;;;;;;;;;4983520;28;92049;-63
2022/12/25 02:04:38;;;;;;;9.32;3.13;;;;;;;;;;4982834;28;92351;-63
2022/12/25 02:07:09;;;;;;;10.40;3.45;;;;;;;;;;4981642;28;94687;-63
2022/12/25 02:09:36;;;;;;;9.07;3.15;;;;;;;;;;4983043;28;92275;-63
2022/12/25 02:12:03;;;;;;;9.13;3.03;;;;;;;;;;4983070;28;93414;-63
2022/12/25 02:14:31;;;;;;;10.05;3.30;;;;;;;;;;4982914;28;92408;-63
2022/12/25 02:17:27;;;;;;;11.50;3.70;;;;;;;;;;4975233;28;92429;-62
2022/12/25 02:20:01;;;;;;;8.50;3.13;;;;;;;;;;4970334;28;92353;-62
2022/12/25 02:22:38;;;;;;;9.45;3.05;;;;;;;;;;4986301;28;92650;-63
2022/12/25 02:25:40;;;;;;;8.80;3.35;;;;;;;;;;4983355;28;92988;-63
2022/12/25 02:28:25;;;;;;;8.98;3.30;;;;;;;;;;4941849;28;92976;-63
2022/12/25 02:30:53;;;;;;;7.88;2.70;;;;;;;;;;4973898;28;92276;-63
2022/12/25 02:34:04;;;;;;;11.25;2.97;;;;;;;;;;4981599;28;94376;-63
2022/12/25 02:36:46;;;;;;;7.70;3.20;;;;;;;;;;4976335;28;92730;-63
2022/12/25 02:42:04;;;;;;;12.80;3.50;;;;;;;;;;4975637;28;92844;-62
2022/12/25 03:07:04;;;;;;;10.02;3.03;;;;;;;;;;4982287;28;92300;-63
2022/12/25 03:12:22;;;;;;;9.18;2.90;;;;;;;;;;4982383;28;92382;-63
2022/12/25 03:17:34;;;;;;;8.73;2.95;;;;;;;;;;4982273;28;92263;-63
2022/12/25 03:28:17;;;;;;;8.85;2.83;;;;;;;;;;4968795;28;95012;-63
2022/12/25 03:36:44;;;;;;;9.43;2.83;;;;;;;;;;4970515;28;92654;-63
2022/12/25 03:46:12;;;;;;;7.75;2.70;;;;;;;;;;4982073;28;92183;-63
2022/12/25 04:37:55;;;;;;;7.82;2.40;;;;;;;;;;4981920;28;92888;-62
2022/12/25 04:40:21;;;;;;;7.70;2.60;;;;;;;;;;4981285;28;92244;-63
2022/12/25 04:42:51;;;;;;;8.68;2.60;;;;;;;;;;4982400;28;92028;-62
2022/12/25 04:45:18;;;;;;;8.18;2.58;;;;;;;;;;4984471;28;92175;-65
2022/12/25 04:47:44;;;;;;;7.07;2.60;;;;;;;;;;4987566;28;92452;-63
2022/12/25 04:50:10;;;;;;;7.40;2.65;;;;;;;;;;4988938;28;94412;-62
2022/12/25 04:52:38;;;;;;;8.50;2.85;;;;;;;;;;4984421;28;94764;-62
2022/12/25 04:55:05;;;;;;;7.63;2.65;;;;;;;;;;4984363;28;93101;-62
2022/12/25 04:57:31;;;;;;;8.35;2.63;;;;;;;;;;4984570;28;92508;-62
2022/12/25 04:59:58;;;;;;;7.95;2.70;;;;;;;;;;4984216;28;92832;-62
2022/12/25 05:02:24;;;;;;;7.90;2.50;;;;;;;;;;4984458;28;93043;-62
2022/12/25 05:04:51;;;;;;;7.40;2.50;;;;;;;;;;4984081;28;92100;-62
2022/12/25 05:07:17;;;;;;;6.13;2.35;;;;;;;;;;4986181;28;94393;-62
2022/12/25 05:09:43;;;;;;;9.68;2.42;;;;;;;;;;4983799;28;92173;-62
2022/12/25 05:12:10;;;;;;;5.80;2.65;;;;;;;;;;4984396;28;92336;-62
2022/12/25 05:14:36;;;;;;;8.00;2.40;;;;;;;;;;4981916;28;95334;-62
2022/12/25 05:17:02;;;;;;;6.88;2.35;;;;;;;;;;4984186;28;92679;-62
2022/12/25 05:19:29;;;;;;;8.57;2.58;;;;;;;;;;4992266;28;91984;-62
2022/12/25 05:21:55;;;;;;;7.60;2.47;;;;;;;;;;4989580;28;92875;-62
2022/12/25 05:24:24;;;;;;;7.78;3.00;;;;;;;;;;4983675;28;92020;-63
2022/12/25 05:26:50;;;;;;;7.70;2.70;;;;;;;;;;4984003;28;92231;-62
2022/12/25 05:29:17;;;;;;;7.43;2.40;;;;;;;;;;4986671;28;92608;-62
2022/12/25 05:31:43;;;;;;;7.60;2.35;;;;;;;;;;4984673;28;92217;-61
2022/12/25 05:34:09;;;;;;;10.50;2.90;;;;;;;;;;4983495;28;92502;-62
2022/12/25 05:36:37;;;;;;;8.18;2.70;;;;;;;;;;4983544;28;92306;-63
2022/12/25 05:39:03;;;;;;;8.18;2.47;;;;;;;;;;4982202;28;94558;-62
2022/12/25 05:41:30;;;;;;;9.75;2.63;;;;;;;;;;4983589;28;92629;-63
2022/12/25 05:44:00;;;;;;;7.35;2.42;;;;;;;;;;4988844;28;92649;-61
2022/12/25 05:46:26;;;;;;;8.02;2.70;;;;;;;;;;4983458;28;92502;-63
2022/12/25 05:48:53;;;;;;;9.68;2.63;;;;;;;;;;4987217;28;92586;-62
2022/12/25 05:51:19;;;;;;;11.00;2.70;;;;;;;;;;4988584;28;92308;-62
2022/12/25 05:53:46;;;;;;;8.18;2.80;;;;;;;;;;4983259;28;92627;-62
2022/12/25 05:56:12;;;;;;;7.88;2.63;;;;;;;;;;4983218;28;91262;-62
2022/12/25 05:58:39;;;;;;;10.60;2.47;;;;;;;;;;4983580;28;92403;-62
2022/12/25 06:01:09;;;;;;;7.00;2.15;;;;;;;;;;4982991;28;93107;-64
2022/12/25 06:03:36;;;;;;;7.65;2.55;;;;;;;;;;4981667;28;94613;-64
2022/12/25 06:06:02;;;;;;;7.85;2.42;;;;;;;;;;4983144;28;94502;-62
2022/12/25 06:08:29;;;;;;;9.27;2.97;;;;;;;;;;4982971;28;92604;-62
2022/12/25 06:10:55;;;;;;;7.32;2.58;;;;;;;;;;4982862;28;92241;-62
2022/12/25 06:13:21;;;;;;;7.55;2.40;;;;;;;;;;4986592;28;92848;-62
2022/12/25 06:15:48;;;;;;;9.02;2.45;;;;;;;;;;4983034;28;92202;-63
2022/12/25 06:18:14;;;;;;;7.35;2.30;;;;;;;;;;4983296;28;92430;-63
2022/12/25 06:20:40;;;;;;;5.68;2.28;;;;;;;;;;4983027;28;92141;-63
2022/12/25 06:23:07;;;;;;;7.93;2.67;;;;;;;;;;4981846;28;92707;-63
2022/12/25 06:25:33;;;;;;;6.60;2.17;;;;;;;;;;4982619;28;92854;-63
2022/12/25 06:27:59;;;;;;;7.65;2.38;;;;;;;;;;4981369;28;95088;-63
2022/12/25 06:30:26;;;;;;;7.53;2.30;;;;;;;;;;4982848;28;92021;-63
2022/12/25 06:32:52;;;;;;;7.25;2.40;;;;;;;;;;4983083;28;93429;-63
2022/12/25 06:35:18;;;;;;;6.70;2.25;;;;;;;;;;4985713;28;92599;-63
2022/12/25 06:37:45;;;;;;;7.28;2.13;;;;;;;;;;4982777;28;92428;-63
2022/12/25 06:40:12;;;;;;;6.30;2.20;;;;;;;;;;4979619;28;92957;-63
2022/12/25 06:42:38;;;;;;;7.68;2.42;;;;;;;;;;4982815;28;92310;-63
2022/12/25 06:45:05;;;;;;;6.75;2.50;;;;;;;;;;4983465;28;92366;-63
2022/12/25 06:47:31;;;;;;;6.80;2.40;;;;;;;;;;4982316;28;92460;-63
2022/12/25 06:49:58;;;;;;;5.78;2.22;;;;;;;;;;4988490;28;92453;-63
2022/12/25 06:52:24;;;;;;;6.80;2.45;;;;;;;;;;4981357;28;94763;-63
2022/12/25 06:54:50;;;;;;;6.75;2.30;;;;;;;;;;4982391;28;92687;-66
2022/12/25 06:57:17;;;;;;;7.60;2.20;;;;;;;;;;4985594;28;92405;-63
2022/12/25 06:59:44;;;;;;;6.20;2.00;;;;;;;;;;4982205;28;92268;-63
2022/12/25 07:02:20;;;;;;;7.53;2.10;;;;;;;;;;4982718;28;91881;-63
2022/12/25 07:04:47;;;;;;;7.95;2.20;;;;;;;;;;4982434;28;92659;-63
2022/12/25 07:07:13;;;;;;;7.05;2.00;;;;;;;;;;4982020;28;93246;-63
2022/12/25 07:09:41;;;;;;;5.32;1.98;;;;;;;;;;4982412;28;91690;-63
2022/12/25 07:12:18;;;;;;;5.07;2.00;;;;;;;;;;4982319;28;92292;-63
2022/12/25 07:14:47;;;;;;;5.78;1.92;;;;;;;;;;4982157;28;92925;-63
2022/12/25 07:17:17;;;;;;;6.88;2.10;;;;;;;;;;4983586;28;94473;-62
2022/12/25 07:19:45;;;;;;;6.13;1.88;;;;;;;;;;4982065;28;92652;-62
2022/12/25 07:22:12;;;;;;;6.93;2.00;;;;;;;;;;4981951;28;92324;-63
2022/12/25 07:24:38;;;;;;;7.15;2.38;;;;;;;;;;4982504;28;92169;-63
2022/12/25 07:27:05;;;;;;;5.13;1.92;;;;;;;;;;4982118;28;92434;-63
2022/12/25 07:29:31;;;;;;;7.35;2.20;;;;;;;;;;4982214;28;92066;-63
2022/12/25 07:31:58;;;;;;;6.07;2.20;;;;;;;;;;4982376;28;92288;-63
2022/12/25 07:34:24;;;;;;;5.82;2.20;;;;;;;;;;4982297;28;91834;-63
2022/12/25 07:36:51;;;;;;;5.38;1.90;;;;;;;;;;4981984;28;92871;-63
2022/12/25 07:39:17;;;;;;;6.43;2.20;;;;;;;;;;4984540;28;92734;-63
2022/12/25 07:41:44;;;;;;;7.03;2.05;;;;;;;;;;4980498;28;94473;-62
2022/12/25 07:44:13;;;;;;;7.20;2.13;;;;;;;;;;4981841;28;95065;-63
2022/12/25 07:46:40;;;;;;;5.70;2.15;;;;;;;;;;4981969;28;92642;-63
2022/12/25 07:49:06;;;;;;;5.05;1.98;;;;;;;;;;4984582;28;92950;-63
2022/12/25 07:51:32;;;;;;;6.13;2.20;;;;;;;;;;4968109;28;92284;-63
2022/12/25 07:53:59;;;;;;;7.20;2.30;;;;;;;;;;4981884;28;92678;-63
2022/12/25 07:56:25;;;;;;;6.75;2.10;;;;;;;;;;4981851;28;92424;-64
2022/12/25 07:58:52;;;;;;;5.57;1.88;;;;;;;;;;4982265;28;92742;-63
2022/12/25 08:01:19;;;;;;;7.55;2.50;;;;;;;;;;4984888;28;92532;-63
2022/12/25 08:03:56;;;;;;;5.72;1.77;;;;;;;;;;4981396;28;92177;-63
2022/12/25 08:06:25;;;;;;;7.22;2.00;;;;;;;;;;4980124;28;94919;-63
2022/12/25 08:08:52;;;;;;;4.78;2.10;;;;;;;;;;4989565;28;92180;-63
2022/12/25 08:11:18;;;;;;;6.32;2.00;;;;;;;;;;4987014;28;93508;-63
2022/12/25 08:13:44;;;;;;;4.93;1.90;;;;;;;;;;4980888;28;93139;-63
2022/12/25 08:16:11;;;;;;;6.43;1.73;;;;;;;;;;4981744;28;92097;-63
2022/12/25 08:18:38;;;;;;;8.50;2.38;;;;;;;;;;4980494;28;93223;-63
2022/12/25 08:21:06;;;;;;;6.25;1.83;;;;;;;;;;4981522;28;92606;-63
2022/12/25 08:23:33;;;;;;;5.72;2.30;;;;;;;;;;4985070;28;91837;-63
2022/12/25 08:26:00;;;;;;;6.05;1.90;;;;;;;;;;4981198;28;92574;-63
2022/12/25 08:28:31;;;;;;;5.70;1.98;;;;;;;;;;4981261;28;92301;-63
2022/12/25 08:30:58;;;;;;;5.38;2.10;;;;;;;;;;4979751;28;94656;-63
2022/12/25 08:33:24;;;;;;;6.15;1.98;;;;;;;;;;4981419;28;92919;-63
2022/12/25 08:35:51;;;;;;;5.65;1.90;;;;;;;;;;4981232;28;92208;-63
2022/12/25 08:38:17;;;;;;;5.82;2.00;;;;;;;;;;4981812;28;92428;-63
2022/12/25 08:40:43;;;;;;;5.90;1.90;;;;;;;;;;4980665;28;92378;-63
2022/12/25 08:43:10;;;;;;;6.38;2.00;;;;;;;;;;4980833;28;92625;-63
2022/12/25 08:45:36;;;;;;;5.22;1.70;;;;;;;;;;4982972;28;92750;-64
2022/12/25 08:48:02;;;;;;;6.45;2.00;;;;;;;;;;4981819;28;91680;-63
2022/12/25 08:50:29;;;;;;;6.53;1.90;;;;;;;;;;4983768;28;92863;-63
2022/12/25 08:52:55;;;;;;;5.95;1.92;;;;;;;;;;4981119;28;93130;-63
2022/12/25 08:55:22;;;;;;;5.60;1.70;;;;;;;;;;4979114;28;94500;-63
2022/12/25 08:57:50;;;;;;;7.15;2.10;;;;;;;;;;4980618;28;95855;-63
2022/12/25 09:00:17;;;;;;;4.50;1.50;;;;;;;;;;4980276;28;92005;-63
2022/12/25 09:02:43;;;;;;;4.03;1.50;;;;;;;;;;4980651;28;92366;-63
2022/12/25 09:05:10;;;;;;;5.78;1.67;;;;;;;;;;4983817;28;92692;-63
2022/12/25 09:07:36;;;;;;;5.50;1.63;;;;;;;;;;4980905;28;92364;-63
2022/12/25 09:10:03;;;;;;;4.82;1.50;;;;;;;;;;4980172;28;92521;-63
2022/12/25 09:12:29;;;;;;;3.50;1.70;;;;;;;;;;4981111;28;91948;-63
2022/12/25 09:14:56;;;;;;;6.13;1.70;;;;;;;;;;4980396;28;92355;-63
2022/12/25 09:17:22;;;;;;;4.22;1.50;;;;;;;;;;4979733;28;92276;-64
2022/12/25 09:19:48;;;;;;;4.28;1.55;;;;;;;;;;4978314;28;95032;-63
2022/12/25 09:22:15;;;;;;;6.68;1.60;;;;;;;;;;4979853;28;92490;-63
2022/12/25 09:24:42;;;;;;;3.78;1.30;;;;;;;;;;4970880;28;92291;-64
2022/12/25 09:27:08;;;;;;;5.07;1.50;;;;;;;;;;4969181;28;92675;-62
2022/12/25 09:29:35;;;;;;;4.35;1.40;;;;;;;;;;4965092;28;92657;-63
2022/12/25 09:32:02;;;;;;;2.92;1.27;;;;;;;;;;4963188;28;93815;-63
2022/12/25 09:34:28;;;;;;;5.32;1.48;;;;;;;;;;4965026;28;92287;-62
2022/12/25 09:36:54;;;;;;;3.80;1.40;;;;;;;;;;4969164;28;92792;-62
2022/12/25 09:39:22;;;;;;;3.80;1.60;;;;;;;;;;4968436;28;92569;-64
2022/12/25 09:41:51;;;;;;;5.40;1.60;;;;;;;;;;4980880;28;92408;-63
2022/12/25 09:44:20;;;;;;;6.45;1.52;;;;;;;;;;4972115;28;95745;-64
2022/12/25 09:46:49;;;;;;;5.63;1.60;;;;;;;;;;4980296;28;91991;-63
2022/12/25 09:49:31;;;;;;;4.63;1.40;;;;;;;;;;4984235;28;92372;-64
2022/12/25 09:52:01;;;;;;;5.90;1.65;;;;;;;;;;4982959;28;93053;-63
2022/12/25 09:54:35;;;;;;;5.20;1.48;;;;;;;;;;4983110;28;92288;-63
2022/12/25 09:57:02;;;;;;;7.65;1.77;;;;;;;;;;4983070;28;92504;-64
2022/12/25 09:59:28;;;;;;;5.40;1.60;;;;;;;;;;4982884;28;93809;-61
2022/12/25 10:02:18;;;;;;;5.32;1.50;;;;;;;;;;4983566;28;91480;-61
2022/12/25 10:05:05;;;;;;;6.93;1.52;;;;;;;;;;4979915;28;92236;-63
2022/12/25 10:07:50;;;;;;;4.28;1.33;;;;;;;;;;4982653;28;92799;-61
2022/12/25 10:10:36;;;;;;;7.55;1.40;;;;;;;;;;4980636;28;94987;-64
2022/12/25 10:13:05;;;;;;;5.75;1.50;;;;;;;;;;4986206;28;94673;-60
2022/12/25 10:15:53;;;;;;;3.85;1.30;;;;;;;;;;4982221;28;92475;-62
2022/12/25 10:18:37;;;;;;;4.95;1.52;;;;;;;;;;4982732;28;92370;-63
2022/12/25 10:21:04;;;;;;;5.30;1.60;;;;;;;;;;4980843;28;94378;-63
2022/12/25 10:23:50;;;;;;;5.50;1.50;;;;;;;;;;4981180;28;92408;-63
2022/12/25 10:26:18;;;;;;;4.72;1.40;;;;;;;;;;4980932;28;92310;-62
2022/12/25 10:28:46;;;;;;;4.10;1.33;;;;;;;;;;4982634;28;92817;-63
2022/12/25 10:31:23;;;;;;;6.38;1.55;;;;;;;;;;4980856;28;92580;-63
2022/12/25 10:33:50;;;;;;;6.53;1.40;;;;;;;;;;4971730;28;92352;-63
2022/12/25 10:36:18;;;;;;;3.72;1.30;;;;;;;;;;4982858;28;95012;-63
2022/12/25 10:38:45;;;;;;;4.43;1.40;;;;;;;;;;4973690;28;94659;-63
2022/12/25 10:41:12;;;;;;;3.92;1.25;;;;;;;;;;4981044;28;92618;-63
2022/12/25 10:43:47;;;;;;;5.28;1.38;;;;;;;;;;4981611;28;92203;-63
2022/12/25 10:46:14;;;;;;;4.43;1.50;;;;;;;;;;4974297;28;92960;-63
2022/12/25 10:48:54;;;;;;;4.72;1.30;;;;;;;;;;4975767;28;92782;-63
2022/12/25 10:51:39;;;;;;;4.93;1.50;;;;;;;;;;4980765;28;92354;-63
2022/12/25 10:54:26;;;;;;;3.60;1.45;;;;;;;;;;4978511;28;92431;-63
2022/12/25 10:56:55;;;;;;;4.13;1.60;;;;;;;;;;4977199;28;92694;-63
2022/12/25 10:59:22;;;;;;;4.38;1.23;;;;;;;;;;4981250;28;92637;-63
2022/12/25 11:01:49;;;;;;;4.55;1.30;;;;;;;;;;4968362;28;95111;-63
2022/12/25 11:04:23;;;;;;;3.05;1.30;;;;;;;;;;4977751;28;92009;-63
2022/12/25 11:07:05;;;;;;;4.93;1.65;;;;;;;;;;4975921;28;93502;-63
2022/12/25 11:09:31;;;;;;;4.47;1.50;;;;;;;;;;4977440;28;92628;-63
2022/12/25 11:11:58;;;;;;;3.72;1.50;;;;;;;;;;4977856;28;92691;-63
2022/12/25 11:14:26;;;;;;;5.20;1.50;;;;;;;;;;4978249;28;92459;-63
2022/12/25 11:16:53;;;;;;;5.40;1.60;;;;;;;;;;4977204;28;92791;-64
2022/12/25 11:19:22;;;;;;;4.05;1.60;;;;;;;;;;4981062;28;91413;-64
2022/12/25 11:21:50;;;;;;;3.97;1.38;;;;;;;;;;4966756;28;93538;-64
2022/12/25 11:24:18;;;;;;;4.60;1.63;;;;;;;;;;4977540;28;92311;-63
2022/12/25 11:26:44;;;;;;;;;;;;;;;;;;4973919;28;94631;-63
2022/12/25 11:29:22;;;;;;;5.90;1.55;;;;;;;;;;4978604;28;93386;-63
2022/12/25 11:31:49;;;;;;;3.95;1.40;;;;;;;;;;4978047;28;92120;-63
2022/12/25 11:34:54;;;;;;;4.03;1.50;;;;;;;;;;4972925;28;93210;-60
2022/12/25 11:37:26;;;;;;;4.75;1.40;;;;;;;;;;4956415;28;93795;-63
2022/12/25 11:39:53;;;;;;;4.78;1.40;;;;;;;;;;4958761;28;92814;-63
2022/12/25 11:42:22;;;;;;;4.13;1.40;;;;;;;;;;4971566;28;92366;-63
2022/12/25 11:44:52;;;;;;;3.88;1.50;;;;;;;;;;4981170;28;92372;-63
2022/12/25 11:47:39;;;;;;;3.38;1.50;;;;;;;;;;4980239;28;93528;-62
2022/12/25 11:50:13;;;;;;;4.65;1.48;;;;;;;;;;4977122;28;92641;-63
2022/12/25 11:52:42;;;;;;;3.78;1.63;;;;;;;;;;4971058;28;95007;-63
2022/12/25 11:55:21;;;;;;;3.70;1.70;;;;;;;;;;4980529;28;94672;-63
2022/12/25 11:57:50;;;;;;;5.00;1.50;;;;;;;;;;4970082;28;93871;-63
2022/12/25 12:00:17;;;;;;;3.58;1.58;;;;;;;;;;4979339;28;92506;-61
2022/12/25 12:02:46;;;;;;;4.28;1.50;;;;;;;;;;4974244;28;92428;-62
2022/12/25 12:05:12;;;;;;;4.65;1.80;;;;;;;;;;4982638;28;92632;-62
2022/12/25 12:07:49;;;;;;;3.28;1.50;;;;;;;;;;4980159;28;92287;-63
2022/12/25 12:10:20;;;;;;;3.63;1.50;;;;;;;;;;4977140;28;91558;-63
2022/12/25 12:13:01;;;;;;;3.75;1.50;;;;;;;;;;4977955;28;92252;-63
2022/12/25 12:15:30;;;;;;;2.97;1.50;;;;;;;;;;4980046;28;92590;-62
2022/12/25 12:18:07;;;;;;;3.58;1.50;;;;;;;;;;4978109;28;95581;-67
2022/12/25 12:20:34;;;;;;;3.72;1.60;;;;;;;;;;4980618;28;92322;-63
2022/12/25 12:23:02;;;;;;;4.43;1.50;;;;;;;;;;4980262;28;92393;-63
2022/12/25 12:25:29;;;;;;;8.13;2.00;;;;;;;;;;4980174;28;92761;-67
2022/12/25 12:27:57;;;;;;;5.28;1.63;;;;;;;;;;4983622;28;92800;-66
2022/12/25 12:30:34;;;;;;;4.95;1.70;;;;;;;;;;4977955;28;92582;-63
2022/12/25 12:33:01;;;;;;;7.75;1.73;;;;;;;;;;4979169;28;92051;-69
2022/12/25 12:35:32;;;;;;;9.43;2.17;;;;;;;;;;4978538;28;92927;-72
2022/12/25 12:38:04;;;;;;;4.50;1.40;;;;;;;;;;4978914;28;93040;-68
2022/12/25 12:40:38;;;;;;;4.32;1.40;;;;;;;;;;4980572;28;92189;-67
2022/12/25 12:43:06;;;;;;;4.10;1.45;;;;;;;;;;4974714;28;95021;-67
2022/12/25 12:45:34;;;;;;;4.65;1.50;;;;;;;;;;4979850;28;93691;-70
2022/12/25 12:48:01;;;;;;;4.05;1.40;;;;;;;;;;4967412;28;92446;-67
2022/12/25 12:50:29;;;;;;;4.55;1.60;;;;;;;;;;4972450;28;92170;-67
2022/12/25 12:52:56;;;;;;;5.70;1.70;;;;;;;;;;4971273;28;92506;-68
2022/12/25 12:55:30;;;;;;;4.15;1.40;;;;;;;;;;4965239;28;92391;-69
2022/12/25 12:58:03;;;;;;;4.63;1.63;;;;;;;;;;4978924;28;92763;-67
2022/12/25 13:00:39;;;;;;;5.00;1.63;;;;;;;;;;4978622;28;91339;-66
2022/12/25 13:03:08;;;;;;;6.93;1.40;;;;;;;;;;4980331;28;92066;-67
2022/12/25 13:05:41;;;;;;;4.75;1.60;;;;;;;;;;4982462;28;92524;-67
2022/12/25 13:08:15;;;;;;;4.10;1.55;;;;;;;;;;4968646;28;94895;-64
2022/12/25 13:10:49;;;;;;;4.22;1.60;;;;;;;;;;4982251;28;94573;-66
2022/12/25 13:13:27;;;;;;;4.75;1.63;;;;;;;;;;4978086;28;92590;-65
2022/12/25 13:15:56;;;;;;;4.60;1.52;;;;;;;;;;4983071;28;92338;-67
2022/12/25 13:18:22;;;;;;;4.28;1.45;;;;;;;;;;4982850;28;92654;-67
2022/12/25 13:20:58;;;;;;;3.17;1.48;;;;;;;;;;4982855;28;92262;-67
2022/12/25 13:23:24;;;;;;;4.13;1.40;;;;;;;;;;4983362;28;92361;-68
2022/12/25 13:25:52;;;;;;;5.32;1.67;;;;;;;;;;4983831;28;91782;-69
2022/12/25 13:28:18;;;;;;;;;;;;;;;;;;4984291;28;92561;-70
2022/12/25 13:30:45;;;;;;;3.30;1.45;;;;;;;;;;4984296;28;117834;-67
2022/12/25 13:33:15;;;;;;;3.17;1.50;;;;;;;;;;4985072;28;95024;-76
2022/12/25 13:35:42;;;;;;;5.05;1.80;;;;;;;;;;4976682;28;94729;-68
2022/12/25 13:38:18;;;;;;;5.97;1.60;;;;;;;;;;4982964;28;93860;-71
2022/12/25 13:43:39;;;;;;;4.32;1.52;;;;;;;;;;4982992;28;92221;-69
2022/12/25 13:46:06;;;;;;;3.45;1.60;;;;;;;;;;4982497;28;93668;-70
2022/12/25 13:48:32;;;;;;;4.28;1.67;;;;;;;;;;4983884;28;92184;-69
2022/12/25 13:51:00;;;;;;;6.93;1.88;;;;;;;;;;4977181;28;91927;-69
2022/12/25 13:53:27;;;;;;;2.95;1.58;;;;;;;;;;4982149;28;92841;-69
2022/12/25 13:55:54;;;;;;;8.32;1.90;;;;;;;;;;4985183;28;92922;-71
2022/12/25 13:58:26;;;;;;;5.13;1.88;;;;;;;;;;4980782;28;94956;-70
2022/12/25 14:00:53;;;;;;;3.55;1.60;;;;;;;;;;4982603;28;92209;-70
2022/12/25 14:03:20;;;;;;;;;;;;;;;;;;4983068;28;92471;-67
2022/12/25 14:05:54;;;;;;;4.50;1.58;;;;;;;;;;4982418;28;122158;-67
2022/12/25 14:08:22;;;;;;;5.63;1.70;;;;;;;;;;4982586;28;92488;-67
2022/12/25 14:10:49;;;;;;;5.53;1.70;;;;;;;;;;4981031;28;93801;-67
2022/12/25 14:13:18;;;;;;;7.32;1.75;;;;;;;;;;4982236;28;92483;-70
2022/12/25 14:15:46;;;;;;;5.35;1.92;;;;;;;;;;4981696;28;91473;-69
2022/12/25 14:18:13;;;;;;;5.30;1.70;;;;;;;;;;4985843;28;92689;-69
2022/12/25 14:20:41;;;;;;;5.03;1.80;;;;;;;;;;4982707;28;92631;-68
2022/12/25 14:23:07;;;;;;;;;;;;;;;;;;4978049;28;94386;-71
2022/12/25 14:25:41;;;;;;;6.15;1.98;;;;;;;;;;4982285;28;118582;-69
2022/12/25 14:28:16;;;;;;;5.47;1.90;;;;;;;;;;4982942;28;91971;-68
2022/12/25 14:30:43;;;;;;;5.75;1.95;;;;;;;;;;4981534;28;92518;-67
2022/12/25 14:33:13;;;;;;;5.50;1.77;;;;;;;;;;4982097;28;93680;-67
2022/12/25 14:35:40;;;;;;;4.57;1.77;;;;;;;;;;4967205;28;92528;-68
2022/12/25 14:38:12;;;;;;;5.13;1.80;;;;;;;;;;4968512;28;92796;-68
2022/12/25 14:40:42;;;;;;;6.10;2.00;;;;;;;;;;4986868;28;93087;-69
2022/12/25 14:43:22;;;;;;;4.70;1.88;;;;;;;;;;4979503;28;92019;-70
2022/12/25 14:45:56;;;;;;;6.72;1.95;;;;;;;;;;4978886;28;93298;-70
2022/12/25 14:48:27;;;;;;;4.75;2.10;;;;;;;;;;4980311;28;94389;-69
2022/12/25 14:50:53;;;;;;;7.18;2.58;;;;;;;;;;4982433;28;95612;-69
2022/12/25 14:53:21;;;;;;;8.60;2.50;;;;;;;;;;4979030;28;92544;-69
2022/12/25 14:55:49;;;;;;;5.65;2.20;;;;;;;;;;4983504;28;93200;-69
2022/12/25 14:58:20;;;;;;;7.60;2.38;;;;;;;;;;4982462;28;92334;-70
2022/12/25 15:00:57;;;;;;;6.35;2.05;;;;;;;;;;4981507;28;92663;-70
2022/12/25 15:03:26;;;;;;;8.57;2.50;;;;;;;;;;4981038;28;92438;-70
2022/12/25 15:05:56;;;;;;;5.80;2.05;;;;;;;;;;4976063;28;91793;-65
2022/12/25 15:08:23;;;;;;;5.43;2.10;;;;;;;;;;4980077;28;91978;-68
2022/12/25 15:10:50;;;;;;;7.55;2.00;;;;;;;;;;4981287;28;92360;-66
2022/12/25 15:13:28;;;;;;;6.60;2.28;;;;;;;;;;4975976;28;95345;-70
2022/12/25 15:15:57;;;;;;;5.65;1.98;;;;;;;;;;4981667;28;92215;-70
2022/12/25 15:18:26;;;;;;;4.68;2.20;;;;;;;;;;4979812;28;92479;-71
2022/12/25 15:20:53;;;;;;;4.72;2.00;;;;;;;;;;4972734;28;92770;-70
2022/12/25 15:23:20;;;;;;;4.85;1.98;;;;;;;;;;4981990;28;92431;-70
2022/12/25 15:25:47;;;;;;;4.70;2.10;;;;;;;;;;4984035;28;93335;-70
2022/12/25 15:28:13;;;;;;;6.30;1.90;;;;;;;;;;4981837;28;92418;-71
2022/12/25 15:30:40;;;;;;;4.78;1.90;;;;;;;;;;4981738;28;92258;-70
2022/12/25 15:33:09;;;;;;;5.07;2.10;;;;;;;;;;4980010;28;92656;-70
2022/12/25 15:35:37;;;;;;;4.40;1.92;;;;;;;;;;4973081;28;92107;-71
2022/12/25 15:38:04;;;;;;;6.20;1.92;;;;;;;;;;4979609;28;94484;-71
2022/12/25 15:40:30;;;;;;;5.90;2.13;;;;;;;;;;4979644;28;92960;-69
2022/12/25 15:42:57;;;;;;;5.03;2.00;;;;;;;;;;4970478;28;92290;-68
2022/12/25 15:45:24;;;;;;;5.18;1.90;;;;;;;;;;4980247;28;92934;-67
2022/12/25 15:47:52;;;;;;;2.92;1.70;;;;;;;;;;4976157;28;92307;-69
2022/12/25 15:50:19;;;;;;;6.65;2.28;;;;;;;;;;4978406;28;92323;-70
2022/12/25 15:52:46;;;;;;;4.93;2.10;;;;;;;;;;4981600;28;92647;-69
2022/12/25 15:55:12;;;;;;;4.78;2.10;;;;;;;;;;4981685;28;91631;-69
2022/12/25 15:57:40;;;;;;;4.20;2.00;;;;;;;;;;4981113;28;92609;-69
2022/12/25 16:00:06;;;;;;;;;;;;;;;;;;4981417;28;92624;-69
2022/12/25 16:02:41;;;;;;;4.03;1.80;;;;;;;;;;4968174;28;94721;-68
2022/12/25 16:05:08;;;;;;;6.40;2.08;;;;;;;;;;4980991;28;94720;-69
2022/12/25 16:07:36;;;;;;;4.60;2.10;;;;;;;;;;4981541;28;92805;-69
2022/12/25 16:10:04;;;;;;;5.28;2.08;;;;;;;;;;4967885;28;92250;-71
2022/12/25 16:12:30;;;;;;;5.90;2.30;;;;;;;;;;4967579;28;92417;-68
2022/12/25 16:14:57;;;;;;;5.30;2.42;;;;;;;;;;4961363;28;92240;-69
2022/12/25 16:17:23;;;;;;;6.88;2.15;;;;;;;;;;4980260;28;92557;-68
2022/12/25 16:19:49;;;;;;;6.03;2.22;;;;;;;;;;4981363;28;91869;-70
2022/12/25 16:22:20;;;;;;;6.35;2.25;;;;;;;;;;4980973;28;92773;-69
2022/12/25 16:24:47;;;;;;;6.95;2.20;;;;;;;;;;4980747;28;92517;-70
2022/12/25 16:27:14;;;;;;;6.55;2.50;;;;;;;;;;4978896;28;95480;-70
2022/12/25 16:29:41;;;;;;;5.78;2.58;;;;;;;;;;4979399;28;92247;-70
2022/12/25 16:32:08;;;;;;;7.03;2.72;;;;;;;;;;4965164;28;93128;-70
2022/12/25 16:34:35;;;;;;;7.18;3.30;;;;;;;;;;4974299;28;92095;-70
2022/12/25 16:37:02;;;;;;;7.82;3.05;;;;;;;;;;4964234;28;92463;-70
2022/12/25 16:39:28;;;;;;;6.47;3.10;;;;;;;;;;4969522;28;93833;-70